sensor_id;sensor_type;location;lat;lon;timestamp;P1;durP1;ratioP1;P2;durP2;ratioP2
30743;SDS011;17486;46.738;7.622;2023-04-12T00:01:47;1.70;;;1.60;;
30743;SDS011;17486;46.738;7.622;2023-04-12T00:04:13;3.33;;;1.92;;
30743;SDS011;17486;46.738;7.622;2023-04-12T00:06:40;1.70;;;1.60;;
30743;SDS011;17486;46.738;7.622;2023-04-12T00:09:06;1.85;;;1.63;;
30743;SDS011;17486;46.738;7.622;2023-04-12T00:11:32;1.50;;;1.25;;
30743;SDS011;17486;46.738;7.622;2023-04-12T00:13:57;2.15;;;1.50;;
30743;SDS011;17486;46.738;7.622;2023-04-12T00:16:23;1.52;;;1.42;;
30743;SDS011;17486;46.738;7.622;2023-04-12T00:18:48;2.63;;;1.90;;
30743;SDS011;17486;46.738;7.622;2023-04-12T00:21:15;2.35;;;2.00;;
30743;SDS011;17486;46.738;7.622;2023-04-12T00:23:44;1.88;;;1.77;;
30743;SDS011;17486;46.738;7.622;2023-04-12T00:26:11;3.28;;;1.88;;
30743;SDS011;17486;46.738;7.622;2023-04-12T00:28:37;2.13;;;1.30;;
30743;SDS011;17486;46.738;7.622;2023-04-12T00:31:02;2.25;;;1.10;;
30743;SDS011;17486;46.738;7.622;2023-04-12T00:33:28;0.98;;;0.80;;
30743;SDS011;17486;46.738;7.622;2023-04-12T00:35:53;1.20;;;0.82;;
30743;SDS011;17486;46.738;7.622;2023-04-12T00:38:18;0.80;;;0.80;;
30743;SDS011;17486;46.738;7.622;2023-04-12T00:40:44;0.80;;;0.75;;
30743;SDS011;17486;46.738;7.622;2023-04-12T00:43:09;0.60;;;0.60;;
30743;SDS011;17486;46.738;7.622;2023-04-12T00:45:43;0.45;;;0.45;;
30743;SDS011;17486;46.738;7.622;2023-04-12T00:48:09;0.68;;;0.60;;
30743;SDS011;17486;46.738;7.622;2023-04-12T00:50:35;0.60;;;0.60;;
30743;SDS011;17486;46.738;7.622;2023-04-12T00:53:03;1.10;;;0.70;;
30743;SDS011;17486;46.738;7.622;2023-04-12T00:55:29;3.20;;;0.88;;
30743;SDS011;17486;46.738;7.622;2023-04-12T00:57:55;0.73;;;0.60;;
30743;SDS011;17486;46.738;7.622;2023-04-12T01:00:21;1.90;;;0.70;;
30743;SDS011;17486;46.738;7.622;2023-04-12T01:02:47;0.60;;;0.60;;
30743;SDS011;17486;46.738;7.622;2023-04-12T01:05:17;2.47;;;0.60;;
30743;SDS011;17486;46.738;7.622;2023-04-12T01:07:54;1.42;;;0.55;;
30743;SDS011;17486;46.738;7.622;2023-04-12T01:10:32;0.60;;;0.60;;
30743;SDS011;17486;46.738;7.622;2023-04-12T01:15:53;0.52;;;0.38;;
30743;SDS011;17486;46.738;7.622;2023-04-12T01:18:41;1.05;;;0.60;;
30743;SDS011;17486;46.738;7.622;2023-04-12T01:21:13;0.50;;;0.50;;
30743;SDS011;17486;46.738;7.622;2023-04-12T01:23:57;1.23;;;0.80;;
30743;SDS011;17486;46.738;7.622;2023-04-12T01:26:41;2.53;;;1.20;;
30743;SDS011;17486;46.738;7.622;2023-04-12T01:29:10;1.92;;;1.55;;
30743;SDS011;17486;46.738;7.622;2023-04-12T01:31:41;6.88;;;2.35;;
30743;SDS011;17486;46.738;7.622;2023-04-12T01:34:14;2.80;;;2.28;;
30743;SDS011;17486;46.738;7.622;2023-04-12T01:36:41;2.20;;;2.03;;
30743;SDS011;17486;46.738;7.622;2023-04-12T01:39:11;2.83;;;2.45;;
30743;SDS011;17486;46.738;7.622;2023-04-12T01:41:39;2.70;;;2.17;;
30743;SDS011;17486;46.738;7.622;2023-04-12T01:44:13;2.88;;;2.42;;
30743;SDS011;17486;46.738;7.622;2023-04-12T01:46:39;2.95;;;2.30;;
30743;SDS011;17486;46.738;7.622;2023-04-12T01:49:06;3.42;;;2.80;;
30743;SDS011;17486;46.738;7.622;2023-04-12T01:54:12;2.58;;;2.38;;
30743;SDS011;17486;46.738;7.622;2023-04-12T01:56:43;3.08;;;2.50;;
30743;SDS011;17486;46.738;7.622;2023-04-12T01:59:15;2.67;;;2.47;;
30743;SDS011;17486;46.738;7.622;2023-04-12T02:01:42;2.95;;;2.67;;
30743;SDS011;17486;46.738;7.622;2023-04-12T02:04:10;3.00;;;2.72;;
30743;SDS011;17486;46.738;7.622;2023-04-12T02:06:36;2.53;;;2.33;;
30743;SDS011;17486;46.738;7.622;2023-04-12T02:09:03;2.83;;;2.63;;
30743;SDS011;17486;46.738;7.622;2023-04-12T02:11:32;3.22;;;2.50;;
30743;SDS011;17486;46.738;7.622;2023-04-12T02:13:57;2.33;;;2.13;;
30743;SDS011;17486;46.738;7.622;2023-04-12T02:16:23;2.53;;;2.33;;
30743;SDS011;17486;46.738;7.622;2023-04-12T02:18:49;2.90;;;2.55;;
30743;SDS011;17486;46.738;7.622;2023-04-12T02:21:14;2.58;;;2.38;;
30743;SDS011;17486;46.738;7.622;2023-04-12T02:23:40;2.80;;;2.60;;
30743;SDS011;17486;46.738;7.622;2023-04-12T02:26:08;2.70;;;2.50;;
30743;SDS011;17486;46.738;7.622;2023-04-12T02:28:35;3.50;;;2.60;;
30743;SDS011;17486;46.738;7.622;2023-04-12T02:31:01;2.58;;;2.38;;
30743;SDS011;17486;46.738;7.622;2023-04-12T02:33:27;2.65;;;2.45;;
30743;SDS011;17486;46.738;7.622;2023-04-12T02:35:53;3.25;;;2.30;;
30743;SDS011;17486;46.738;7.622;2023-04-12T02:38:18;2.40;;;2.17;;
30743;SDS011;17486;46.738;7.622;2023-04-12T02:40:44;2.13;;;1.98;;
30743;SDS011;17486;46.738;7.622;2023-04-12T02:43:09;2.65;;;2.45;;
30743;SDS011;17486;46.738;7.622;2023-04-12T02:45:34;2.33;;;2.13;;
30743;SDS011;17486;46.738;7.622;2023-04-12T02:48:00;2.92;;;2.30;;
30743;SDS011;17486;46.738;7.622;2023-04-12T02:50:26;2.83;;;2.20;;
30743;SDS011;17486;46.738;7.622;2023-04-12T02:52:51;2.08;;;1.88;;
30743;SDS011;17486;46.738;7.622;2023-04-12T02:55:17;1.90;;;1.80;;
30743;SDS011;17486;46.738;7.622;2023-04-12T02:57:43;1.73;;;1.63;;
30743;SDS011;17486;46.738;7.622;2023-04-12T03:00:10;1.80;;;1.70;;
30743;SDS011;17486;46.738;7.622;2023-04-12T03:02:36;1.77;;;1.67;;
30743;SDS011;17486;46.738;7.622;2023-04-12T03:05:01;1.80;;;1.70;;
30743;SDS011;17486;46.738;7.622;2023-04-12T03:07:29;2.13;;;1.90;;
30743;SDS011;17486;46.738;7.622;2023-04-12T03:09:55;2.30;;;1.85;;
30743;SDS011;17486;46.738;7.622;2023-04-12T03:12:20;2.38;;;2.00;;
30743;SDS011;17486;46.738;7.622;2023-04-12T03:14:46;1.98;;;1.80;;
30743;SDS011;17486;46.738;7.622;2023-04-12T03:17:11;1.92;;;1.83;;
30743;SDS011;17486;46.738;7.622;2023-04-12T03:19:37;2.20;;;2.00;;
30743;SDS011;17486;46.738;7.622;2023-04-12T03:22:02;2.65;;;2.45;;
30743;SDS011;17486;46.738;7.622;2023-04-12T03:24:28;2.90;;;2.60;;
30743;SDS011;17486;46.738;7.622;2023-04-12T03:26:57;2.30;;;2.10;;
30743;SDS011;17486;46.738;7.622;2023-04-12T03:29:23;2.17;;;2.00;;
30743;SDS011;17486;46.738;7.622;2023-04-12T03:31:48;1.92;;;1.83;;
30743;SDS011;17486;46.738;7.622;2023-04-12T03:34:14;2.83;;;2.10;;
30743;SDS011;17486;46.738;7.622;2023-04-12T03:36:39;2.13;;;2.03;;
30743;SDS011;17486;46.738;7.622;2023-04-12T03:39:05;2.47;;;2.25;;
30743;SDS011;17486;46.738;7.622;2023-04-12T03:41:30;3.28;;;2.55;;
30743;SDS011;17486;46.738;7.622;2023-04-12T03:43:56;2.35;;;2.00;;
30743;SDS011;17486;46.738;7.622;2023-04-12T03:46:21;2.50;;;2.03;;
30743;SDS011;17486;46.738;7.622;2023-04-12T03:48:47;1.98;;;1.80;;
30743;SDS011;17486;46.738;7.622;2023-04-12T03:51:13;1.38;;;1.27;;
30743;SDS011;17486;46.738;7.622;2023-04-12T03:53:39;1.05;;;1.05;;
30743;SDS011;17486;46.738;7.622;2023-04-12T03:56:05;3.30;;;1.00;;
30743;SDS011;17486;46.738;7.622;2023-04-12T03:58:31;1.50;;;0.80;;
30743;SDS011;17486;46.738;7.622;2023-04-12T04:01:02;0.93;;;0.73;;
30743;SDS011;17486;46.738;7.622;2023-04-12T04:03:32;0.60;;;0.60;;
30743;SDS011;17486;46.738;7.622;2023-04-12T04:06:01;0.63;;;0.47;;
30743;SDS011;17486;46.738;7.622;2023-04-12T04:08:27;0.85;;;0.60;;
30743;SDS011;17486;46.738;7.622;2023-04-12T04:10:53;1.63;;;0.40;;
30743;SDS011;17486;46.738;7.622;2023-04-12T04:13:20;0.47;;;0.47;;
30743;SDS011;17486;46.738;7.622;2023-04-12T04:15:46;0.45;;;0.43;;
30743;SDS011;17486;46.738;7.622;2023-04-12T04:18:14;0.38;;;0.38;;
30743;SDS011;17486;46.738;7.622;2023-04-12T04:20:40;0.30;;;0.30;;
30743;SDS011;17486;46.738;7.622;2023-04-12T04:23:05;1.35;;;1.00;;
30743;SDS011;17486;46.738;7.622;2023-04-12T04:25:31;0.30;;;0.30;;
30743;SDS011;17486;46.738;7.622;2023-04-12T04:27:57;0.30;;;0.30;;
30743;SDS011;17486;46.738;7.622;2023-04-12T04:30:23;0.50;;;0.38;;
30743;SDS011;17486;46.738;7.622;2023-04-12T04:32:49;0.40;;;0.40;;
30743;SDS011;17486;46.738;7.622;2023-04-12T04:35:14;0.40;;;0.40;;
30743;SDS011;17486;46.738;7.622;2023-04-12T04:37:41;0.55;;;0.55;;
30743;SDS011;17486;46.738;7.622;2023-04-12T04:40:07;1.17;;;0.50;;
30743;SDS011;17486;46.738;7.622;2023-04-12T04:42:34;0.95;;;0.75;;
30743;SDS011;17486;46.738;7.622;2023-04-12T04:45:02;0.98;;;0.70;;
30743;SDS011;17486;46.738;7.622;2023-04-12T04:47:36;1.13;;;0.80;;
30743;SDS011;17486;46.738;7.622;2023-04-12T04:50:02;1.02;;;0.85;;
30743;SDS011;17486;46.738;7.622;2023-04-12T04:52:27;0.82;;;0.70;;
30743;SDS011;17486;46.738;7.622;2023-04-12T04:54:53;0.77;;;0.77;;
30743;SDS011;17486;46.738;7.622;2023-04-12T04:57:21;1.13;;;1.02;;
30743;SDS011;17486;46.738;7.622;2023-04-12T04:59:47;1.25;;;0.93;;
30743;SDS011;17486;46.738;7.622;2023-04-12T05:02:12;0.77;;;0.77;;
30743;SDS011;17486;46.738;7.622;2023-04-12T05:04:38;1.02;;;0.93;;
30743;SDS011;17486;46.738;7.622;2023-04-12T05:07:03;0.75;;;0.73;;
30743;SDS011;17486;46.738;7.622;2023-04-12T05:09:29;2.45;;;0.95;;
30743;SDS011;17486;46.738;7.622;2023-04-12T05:11:54;0.80;;;0.75;;
30743;SDS011;17486;46.738;7.622;2023-04-12T05:14:19;0.80;;;0.80;;
30743;SDS011;17486;46.738;7.622;2023-04-12T05:16:45;1.20;;;0.80;;
30743;SDS011;17486;46.738;7.622;2023-04-12T05:19:10;2.03;;;1.02;;
30743;SDS011;17486;46.738;7.622;2023-04-12T05:21:35;1.27;;;1.15;;
30743;SDS011;17486;46.738;7.622;2023-04-12T05:24:01;1.85;;;1.45;;
30743;SDS011;17486;46.738;7.622;2023-04-12T05:26:26;1.77;;;1.67;;
30743;SDS011;17486;46.738;7.622;2023-04-12T05:28:52;1.90;;;1.80;;
30743;SDS011;17486;46.738;7.622;2023-04-12T05:31:17;3.45;;;1.70;;
30743;SDS011;17486;46.738;7.622;2023-04-12T05:33:43;2.45;;;2.10;;
30743;SDS011;17486;46.738;7.622;2023-04-12T05:36:09;3.00;;;2.42;;
30743;SDS011;17486;46.738;7.622;2023-04-12T05:38:35;3.60;;;2.80;;
30743;SDS011;17486;46.738;7.622;2023-04-12T05:41:00;4.00;;;2.65;;
30743;SDS011;17486;46.738;7.622;2023-04-12T05:43:28;3.42;;;2.45;;
30743;SDS011;17486;46.738;7.622;2023-04-12T05:45:54;3.92;;;2.65;;
30743;SDS011;17486;46.738;7.622;2023-04-12T05:48:20;2.97;;;2.67;;
30743;SDS011;17486;46.738;7.622;2023-04-12T05:50:51;2.85;;;2.40;;
30743;SDS011;17486;46.738;7.622;2023-04-12T05:53:17;3.70;;;2.30;;
30743;SDS011;17486;46.738;7.622;2023-04-12T05:55:43;2.60;;;2.38;;
30743;SDS011;17486;46.738;7.622;2023-04-12T05:58:09;2.28;;;2.08;;
30743;SDS011;17486;46.738;7.622;2023-04-12T06:00:35;7.28;;;4.70;;
30743;SDS011;17486;46.738;7.622;2023-04-12T06:03:01;7.97;;;5.45;;
30743;SDS011;17486;46.738;7.622;2023-04-12T06:05:27;7.13;;;5.03;;
30743;SDS011;17486;46.738;7.622;2023-04-12T06:07:53;4.10;;;3.70;;
30743;SDS011;17486;46.738;7.622;2023-04-12T06:10:19;3.58;;;2.70;;
30743;SDS011;17486;46.738;7.622;2023-04-12T06:12:45;2.58;;;2.33;;
30743;SDS011;17486;46.738;7.622;2023-04-12T06:15:11;2.33;;;2.13;;
30743;SDS011;17486;46.738;7.622;2023-04-12T06:17:37;2.25;;;2.08;;
30743;SDS011;17486;46.738;7.622;2023-04-12T06:20:03;1.80;;;1.70;;
30743;SDS011;17486;46.738;7.622;2023-04-12T06:25:00;1.95;;;1.73;;
30743;SDS011;17486;46.738;7.622;2023-04-12T06:27:25;2.28;;;2.08;;
30743;SDS011;17486;46.738;7.622;2023-04-12T06:29:51;3.03;;;1.95;;
30743;SDS011;17486;46.738;7.622;2023-04-12T06:32:16;1.70;;;1.60;;
30743;SDS011;17486;46.738;7.622;2023-04-12T06:34:42;1.50;;;0.90;;
30743;SDS011;17486;46.738;7.622;2023-04-12T06:37:07;0.60;;;0.60;;
30743;SDS011;17486;46.738;7.622;2023-04-12T06:39:33;1.73;;;0.50;;
30743;SDS011;17486;46.738;7.622;2023-04-12T06:41:58;0.60;;;0.60;;
30743;SDS011;17486;46.738;7.622;2023-04-12T06:44:23;0.50;;;0.50;;
30743;SDS011;17486;46.738;7.622;2023-04-12T06:46:51;0.88;;;0.57;;
30743;SDS011;17486;46.738;7.622;2023-04-12T06:49:16;1.65;;;0.45;;
30743;SDS011;17486;46.738;7.622;2023-04-12T06:51:41;0.63;;;0.55;;
30743;SDS011;17486;46.738;7.622;2023-04-12T06:54:07;2.28;;;0.88;;
30743;SDS011;17486;46.738;7.622;2023-04-12T06:56:35;0.85;;;0.82;;
30743;SDS011;17486;46.738;7.622;2023-04-12T06:59:00;1.55;;;1.45;;
30743;SDS011;17486;46.738;7.622;2023-04-12T07:01:26;2.08;;;1.90;;
30743;SDS011;17486;46.738;7.622;2023-04-12T07:03:51;1.60;;;1.50;;
30743;SDS011;17486;46.738;7.622;2023-04-12T07:06:17;2.65;;;1.80;;
30743;SDS011;17486;46.738;7.622;2023-04-12T07:08:42;2.30;;;2.10;;
30743;SDS011;17486;46.738;7.622;2023-04-12T07:11:07;2.40;;;2.20;;
30743;SDS011;17486;46.738;7.622;2023-04-12T07:13:32;2.25;;;1.67;;
30743;SDS011;17486;46.738;7.622;2023-04-12T07:15:58;1.83;;;1.73;;
30743;SDS011;17486;46.738;7.622;2023-04-12T07:18:24;1.63;;;1.52;;
30743;SDS011;17486;46.738;7.622;2023-04-12T07:20:52;1.40;;;1.30;;
30743;SDS011;17486;46.738;7.622;2023-04-12T07:23:19;1.77;;;1.60;;
30743;SDS011;17486;46.738;7.622;2023-04-12T07:25:44;1.20;;;1.10;;
30743;SDS011;17486;46.738;7.622;2023-04-12T07:28:09;2.25;;;1.40;;
30743;SDS011;17486;46.738;7.622;2023-04-12T07:30:35;1.23;;;1.10;;
30743;SDS011;17486;46.738;7.622;2023-04-12T07:33:03;1.23;;;1.13;;
30743;SDS011;17486;46.738;7.622;2023-04-12T07:35:29;1.52;;;1.05;;
30743;SDS011;17486;46.738;7.622;2023-04-12T07:37:55;2.28;;;0.98;;
30743;SDS011;17486;46.738;7.622;2023-04-12T07:40:21;1.13;;;0.90;;
30743;SDS011;17486;46.738;7.622;2023-04-12T07:42:46;1.00;;;0.90;;
30743;SDS011;17486;46.738;7.622;2023-04-12T07:45:12;1.35;;;1.05;;
30743;SDS011;17486;46.738;7.622;2023-04-12T07:47:37;1.48;;;0.82;;
30743;SDS011;17486;46.738;7.622;2023-04-12T07:50:02;0.68;;;0.68;;
30743;SDS011;17486;46.738;7.622;2023-04-12T07:52:28;1.60;;;0.85;;
30743;SDS011;17486;46.738;7.622;2023-04-12T07:54:54;0.50;;;0.50;;
30743;SDS011;17486;46.738;7.622;2023-04-12T07:57:19;0.60;;;0.60;;
30743;SDS011;17486;46.738;7.622;2023-04-12T07:59:45;1.10;;;0.80;;
30743;SDS011;17486;46.738;7.622;2023-04-12T08:02:10;0.85;;;0.80;;
30743;SDS011;17486;46.738;7.622;2023-04-12T08:04:36;3.65;;;0.70;;
30743;SDS011;17486;46.738;7.622;2023-04-12T08:07:02;1.73;;;0.98;;
30743;SDS011;17486;46.738;7.622;2023-04-12T08:09:27;0.60;;;0.60;;
30743;SDS011;17486;46.738;7.622;2023-04-12T08:11:54;0.90;;;0.52;;
30743;SDS011;17486;46.738;7.622;2023-04-12T08:14:19;0.75;;;0.68;;
30743;SDS011;17486;46.738;7.622;2023-04-12T08:16:45;1.70;;;1.10;;
30743;SDS011;17486;46.738;7.622;2023-04-12T08:19:10;1.92;;;0.90;;
30743;SDS011;17486;46.738;7.622;2023-04-12T08:21:36;3.33;;;1.20;;
30743;SDS011;17486;46.738;7.622;2023-04-12T08:24:01;1.25;;;1.15;;
30743;SDS011;17486;46.738;7.622;2023-04-12T08:26:26;1.73;;;1.00;;
30743;SDS011;17486;46.738;7.622;2023-04-12T08:28:53;1.27;;;0.90;;
30743;SDS011;17486;46.738;7.622;2023-04-12T08:31:20;1.48;;;1.30;;
30743;SDS011;17486;46.738;7.622;2023-04-12T08:33:46;1.52;;;1.10;;
30743;SDS011;17486;46.738;7.622;2023-04-12T08:36:11;1.20;;;1.08;;
30743;SDS011;17486;46.738;7.622;2023-04-12T08:38:37;1.33;;;1.23;;
30743;SDS011;17486;46.738;7.622;2023-04-12T08:41:05;2.78;;;1.20;;
30743;SDS011;17486;46.738;7.622;2023-04-12T08:43:31;2.40;;;1.20;;
30743;SDS011;17486;46.738;7.622;2023-04-12T08:45:59;1.75;;;1.20;;
30743;SDS011;17486;46.738;7.622;2023-04-12T08:48:26;1.55;;;1.25;;
30743;SDS011;17486;46.738;7.622;2023-04-12T08:50:52;2.47;;;1.23;;
30743;SDS011;17486;46.738;7.622;2023-04-12T08:53:20;1.27;;;1.10;;
30743;SDS011;17486;46.738;7.622;2023-04-12T08:55:46;1.60;;;1.30;;
30743;SDS011;17486;46.738;7.622;2023-04-12T08:58:15;1.60;;;1.30;;
30743;SDS011;17486;46.738;7.622;2023-04-12T09:00:41;1.67;;;1.30;;
30743;SDS011;17486;46.738;7.622;2023-04-12T09:03:08;1.27;;;0.82;;
30743;SDS011;17486;46.738;7.622;2023-04-12T09:05:36;2.13;;;1.30;;
30743;SDS011;17486;46.738;7.622;2023-04-12T09:08:02;2.25;;;1.55;;
30743;SDS011;17486;46.738;7.622;2023-04-12T09:10:29;2.40;;;1.40;;
30743;SDS011;17486;46.738;7.622;2023-04-12T09:12:56;4.65;;;3.88;;
30743;SDS011;17486;46.738;7.622;2023-04-12T09:15:22;4.20;;;3.80;;
30743;SDS011;17486;46.738;7.622;2023-04-12T09:17:47;2.92;;;2.22;;
30743;SDS011;17486;46.738;7.622;2023-04-12T09:22:41;2.15;;;1.40;;
30743;SDS011;17486;46.738;7.622;2023-04-12T09:25:10;2.20;;;1.20;;
30743;SDS011;17486;46.738;7.622;2023-04-12T09:27:46;2.15;;;1.27;;
30743;SDS011;17486;46.738;7.622;2023-04-12T09:30:12;1.20;;;0.90;;
30743;SDS011;17486;46.738;7.622;2023-04-12T09:32:39;2.30;;;1.27;;
30743;SDS011;17486;46.738;7.622;2023-04-12T09:35:05;1.30;;;0.90;;
30743;SDS011;17486;46.738;7.622;2023-04-12T09:37:31;1.63;;;1.02;;
30743;SDS011;17486;46.738;7.622;2023-04-12T09:40:00;2.78;;;1.30;;
30743;SDS011;17486;46.738;7.622;2023-04-12T09:42:28;4.07;;;1.55;;
30743;SDS011;17486;46.738;7.622;2023-04-12T09:44:55;2.35;;;1.40;;
30743;SDS011;17486;46.738;7.622;2023-04-12T09:47:37;1.15;;;1.15;;
30743;SDS011;17486;46.738;7.622;2023-04-12T09:50:05;2.42;;;2.20;;
30743;SDS011;17486;46.738;7.622;2023-04-12T09:52:35;3.55;;;2.95;;
30743;SDS011;17486;46.738;7.622;2023-04-12T09:55:02;2.75;;;2.03;;
30743;SDS011;17486;46.738;7.622;2023-04-12T09:57:33;1.10;;;1.00;;
30743;SDS011;17486;46.738;7.622;2023-04-12T10:00:01;1.35;;;1.10;;
30743;SDS011;17486;46.738;7.622;2023-04-12T10:02:29;1.17;;;0.80;;
30743;SDS011;17486;46.738;7.622;2023-04-12T10:04:55;2.35;;;1.20;;
30743;SDS011;17486;46.738;7.622;2023-04-12T10:07:21;0.65;;;0.65;;
30743;SDS011;17486;46.738;7.622;2023-04-12T10:09:46;1.08;;;0.88;;
30743;SDS011;17486;46.738;7.622;2023-04-12T10:12:12;0.75;;;0.70;;
30743;SDS011;17486;46.738;7.622;2023-04-12T10:14:38;1.63;;;1.15;;
30743;SDS011;17486;46.738;7.622;2023-04-12T10:17:05;1.30;;;1.20;;
30743;SDS011;17486;46.738;7.622;2023-04-12T10:19:33;1.58;;;1.30;;
30743;SDS011;17486;46.738;7.622;2023-04-12T10:21:59;4.28;;;1.27;;
30743;SDS011;17486;46.738;7.622;2023-04-12T10:24:26;1.58;;;1.00;;
30743;SDS011;17486;46.738;7.622;2023-04-12T10:26:53;2.65;;;1.42;;
30743;SDS011;17486;46.738;7.622;2023-04-12T10:31:48;1.50;;;1.27;;
30743;SDS011;17486;46.738;7.622;2023-04-12T10:34:14;2.25;;;1.08;;
30743;SDS011;17486;46.738;7.622;2023-04-12T10:36:56;2.42;;;0.93;;
30743;SDS011;17486;46.738;7.622;2023-04-12T10:44:50;3.70;;;1.20;;
30743;SDS011;17486;46.738;7.622;2023-04-12T10:50:31;1.60;;;1.20;;
30743;SDS011;17486;46.738;7.622;2023-04-12T10:55:40;3.95;;;1.60;;
30743;SDS011;17486;46.738;7.622;2023-04-12T10:58:09;44.63;;;29.83;;
30743;SDS011;17486;46.738;7.622;2023-04-12T11:03:22;94.28;;;58.70;;
30743;SDS011;17486;46.738;7.622;2023-04-12T11:05:58;38.92;;;25.38;;
30743;SDS011;17486;46.738;7.622;2023-04-12T11:08:30;7.32;;;3.83;;
30743;SDS011;17486;46.738;7.622;2023-04-12T11:11:04;1.80;;;1.40;;
30743;SDS011;17486;46.738;7.622;2023-04-12T11:13:41;1.95;;;1.10;;
30743;SDS011;17486;46.738;7.622;2023-04-12T11:16:07;5.90;;;1.20;;
30743;SDS011;17486;46.738;7.622;2023-04-12T11:18:36;2.85;;;1.20;;
30743;SDS011;17486;46.738;7.622;2023-04-12T11:21:02;1.75;;;1.33;;
30743;SDS011;17486;46.738;7.622;2023-04-12T11:23:29;3.33;;;1.38;;
30743;SDS011;17486;46.738;7.622;2023-04-12T11:25:55;2.78;;;1.25;;
30743;SDS011;17486;46.738;7.622;2023-04-12T11:28:21;2.92;;;1.50;;
30743;SDS011;17486;46.738;7.622;2023-04-12T11:30:53;3.03;;;1.50;;
30743;SDS011;17486;46.738;7.622;2023-04-12T11:33:29;2.97;;;1.60;;
30743;SDS011;17486;46.738;7.622;2023-04-12T11:35:56;3.13;;;1.38;;
30743;SDS011;17486;46.738;7.622;2023-04-12T11:38:21;2.42;;;1.30;;
30743;SDS011;17486;46.738;7.622;2023-04-12T11:40:47;2.78;;;1.45;;
30743;SDS011;17486;46.738;7.622;2023-04-12T11:43:17;3.80;;;1.40;;
30743;SDS011;17486;46.738;7.622;2023-04-12T11:45:43;2.58;;;1.30;;
30743;SDS011;17486;46.738;7.622;2023-04-12T11:48:09;6.18;;;1.48;;
30743;SDS011;17486;46.738;7.622;2023-04-12T11:50:35;3.00;;;2.15;;
30743;SDS011;17486;46.738;7.622;2023-04-12T11:53:12;4.22;;;1.67;;
30743;SDS011;17486;46.738;7.622;2023-04-12T11:55:37;3.97;;;1.92;;
30743;SDS011;17486;46.738;7.622;2023-04-12T11:58:03;3.13;;;1.17;;
30743;SDS011;17486;46.738;7.622;2023-04-12T12:00:28;2.65;;;1.38;;
30743;SDS011;17486;46.738;7.622;2023-04-12T12:02:55;4.45;;;1.73;;
30743;SDS011;17486;46.738;7.622;2023-04-12T12:05:21;2.28;;;1.35;;
30743;SDS011;17486;46.738;7.622;2023-04-12T12:07:47;2.45;;;1.17;;
30743;SDS011;17486;46.738;7.622;2023-04-12T12:10:13;3.30;;;1.45;;
30743;SDS011;17486;46.738;7.622;2023-04-12T12:12:38;3.10;;;1.27;;
30743;SDS011;17486;46.738;7.622;2023-04-12T12:15:07;2.40;;;1.33;;
30743;SDS011;17486;46.738;7.622;2023-04-12T12:17:36;4.97;;;1.52;;
30743;SDS011;17486;46.738;7.622;2023-04-12T12:20:04;2.58;;;1.33;;
30743;SDS011;17486;46.738;7.622;2023-04-12T12:22:30;2.30;;;1.25;;
30743;SDS011;17486;46.738;7.622;2023-04-12T12:24:57;2.70;;;1.13;;
30743;SDS011;17486;46.738;7.622;2023-04-12T12:29:54;3.53;;;1.20;;
30743;SDS011;17486;46.738;7.622;2023-04-12T12:32:20;2.70;;;1.40;;
30743;SDS011;17486;46.738;7.622;2023-04-12T12:34:54;4.95;;;1.27;;
30743;SDS011;17486;46.738;7.622;2023-04-12T12:37:25;3.30;;;1.65;;
30743;SDS011;17486;46.738;7.622;2023-04-12T12:40:01;1.60;;;1.50;;
30743;SDS011;17486;46.738;7.622;2023-04-12T12:42:47;2.65;;;1.10;;
30743;SDS011;17486;46.738;7.622;2023-04-12T12:45:15;2.05;;;1.40;;
30743;SDS011;17486;46.738;7.622;2023-04-12T12:47:54;1.42;;;1.20;;
30743;SDS011;17486;46.738;7.622;2023-04-12T12:50:26;3.45;;;1.73;;
30743;SDS011;17486;46.738;7.622;2023-04-12T12:52:54;2.50;;;1.27;;
30743;SDS011;17486;46.738;7.622;2023-04-12T12:55:20;1.30;;;1.20;;
30743;SDS011;17486;46.738;7.622;2023-04-12T12:57:46;5.03;;;1.88;;
30743;SDS011;17486;46.738;7.622;2023-04-12T13:00:13;2.78;;;1.45;;
30743;SDS011;17486;46.738;7.622;2023-04-12T13:02:40;4.53;;;1.40;;
30743;SDS011;17486;46.738;7.622;2023-04-12T13:05:06;4.47;;;1.67;;
30743;SDS011;17486;46.738;7.622;2023-04-12T13:07:32;4.75;;;1.70;;
30743;SDS011;17486;46.738;7.622;2023-04-12T13:09:58;2.42;;;1.60;;
30743;SDS011;17486;46.738;7.622;2023-04-12T13:12:23;3.38;;;1.55;;
30743;SDS011;17486;46.738;7.622;2023-04-12T13:14:49;3.67;;;1.50;;
30743;SDS011;17486;46.738;7.622;2023-04-12T13:17:14;4.20;;;1.70;;
30743;SDS011;17486;46.738;7.622;2023-04-12T13:19:40;5.90;;;1.75;;
30743;SDS011;17486;46.738;7.622;2023-04-12T13:22:06;2.13;;;1.00;;
30743;SDS011;17486;46.738;7.622;2023-04-12T13:24:32;4.82;;;1.83;;
30743;SDS011;17486;46.738;7.622;2023-04-12T13:26:58;2.55;;;1.38;;
30743;SDS011;17486;46.738;7.622;2023-04-12T13:29:24;2.53;;;1.42;;
30743;SDS011;17486;46.738;7.622;2023-04-12T13:31:49;3.28;;;1.55;;
30743;SDS011;17486;46.738;7.622;2023-04-12T13:34:15;1.65;;;1.40;;
30743;SDS011;17486;46.738;7.622;2023-04-12T13:36:40;5.78;;;1.63;;
30743;SDS011;17486;46.738;7.622;2023-04-12T13:39:05;4.07;;;1.30;;
30743;SDS011;17486;46.738;7.622;2023-04-12T13:41:31;5.05;;;1.40;;
30743;SDS011;17486;46.738;7.622;2023-04-12T13:43:58;2.45;;;1.30;;
30743;SDS011;17486;46.738;7.622;2023-04-12T13:46:23;3.78;;;1.35;;
30743;SDS011;17486;46.738;7.622;2023-04-12T13:48:49;1.42;;;1.00;;
30743;SDS011;17486;46.738;7.622;2023-04-12T13:51:15;2.80;;;1.10;;
30743;SDS011;17486;46.738;7.622;2023-04-12T13:53:41;2.35;;;1.20;;
30743;SDS011;17486;46.738;7.622;2023-04-12T13:56:06;1.45;;;1.25;;
30743;SDS011;17486;46.738;7.622;2023-04-12T13:58:32;3.20;;;1.05;;
30743;SDS011;17486;46.738;7.622;2023-04-12T14:00:57;1.83;;;1.00;;
30743;SDS011;17486;46.738;7.622;2023-04-12T14:03:24;3.17;;;1.50;;
30743;SDS011;17486;46.738;7.622;2023-04-12T14:05:50;2.50;;;1.33;;
30743;SDS011;17486;46.738;7.622;2023-04-12T14:08:16;1.98;;;1.00;;
30743;SDS011;17486;46.738;7.622;2023-04-12T14:10:41;3.03;;;1.20;;
30743;SDS011;17486;46.738;7.622;2023-04-12T14:13:07;3.42;;;1.40;;
30743;SDS011;17486;46.738;7.622;2023-04-12T14:15:32;1.65;;;1.20;;
30743;SDS011;17486;46.738;7.622;2023-04-12T14:17:57;4.13;;;1.45;;
30743;SDS011;17486;46.738;7.622;2023-04-12T14:20:23;3.17;;;1.40;;
30743;SDS011;17486;46.738;7.622;2023-04-12T14:22:48;2.47;;;1.23;;
30743;SDS011;17486;46.738;7.622;2023-04-12T14:25:14;4.07;;;1.55;;
30743;SDS011;17486;46.738;7.622;2023-04-12T14:27:39;1.67;;;1.10;;
30743;SDS011;17486;46.738;7.622;2023-04-12T14:30:05;2.10;;;1.40;;
30743;SDS011;17486;46.738;7.622;2023-04-12T14:32:31;1.85;;;1.25;;
30743;SDS011;17486;46.738;7.622;2023-04-12T14:34:57;2.55;;;1.33;;
30743;SDS011;17486;46.738;7.622;2023-04-12T14:37:22;2.78;;;1.52;;
30743;SDS011;17486;46.738;7.622;2023-04-12T14:39:48;3.17;;;1.88;;
30743;SDS011;17486;46.738;7.622;2023-04-12T14:42:14;2.40;;;1.83;;
30743;SDS011;17486;46.738;7.622;2023-04-12T14:44:40;2.20;;;1.40;;
30743;SDS011;17486;46.738;7.622;2023-04-12T14:47:05;3.20;;;1.67;;
30743;SDS011;17486;46.738;7.622;2023-04-12T14:49:30;2.05;;;1.30;;
30743;SDS011;17486;46.738;7.622;2023-04-12T14:51:56;1.75;;;1.33;;
30743;SDS011;17486;46.738;7.622;2023-04-12T14:54:21;1.98;;;1.40;;
30743;SDS011;17486;46.738;7.622;2023-04-12T14:56:46;4.63;;;1.80;;
30743;SDS011;17486;46.738;7.622;2023-04-12T14:59:12;5.18;;;2.03;;
30743;SDS011;17486;46.738;7.622;2023-04-12T15:01:38;2.90;;;1.30;;
30743;SDS011;17486;46.738;7.622;2023-04-12T15:04:05;2.53;;;1.27;;
30743;SDS011;17486;46.738;7.622;2023-04-12T15:06:31;3.08;;;1.45;;
30743;SDS011;17486;46.738;7.622;2023-04-12T15:08:59;2.15;;;1.27;;
30743;SDS011;17486;46.738;7.622;2023-04-12T15:11:26;2.03;;;1.35;;
30743;SDS011;17486;46.738;7.622;2023-04-12T15:13:51;3.47;;;1.50;;
30743;SDS011;17486;46.738;7.622;2023-04-12T15:16:17;2.67;;;1.63;;